Yockey, Indiana
Current Conditions -  °F | °C
As of 10:53 PM on Sunday 25 Jan 2015 (Local Time) from KBMG Reporting Station
Light Snow Light Snow  
Wind Chill: 14°   Ceiling: 1100
Heat Index: 27°   Visibility: 7mi
Dew Point: 24°   Wind: 18mph
Humidity: 89%   Direction: 10°N
Pressure: 29.79"   Gusts: NA
Location:  38.7366°N, 86.4546°W
Report Text: KBMG 260353Z AUTO 01016KT 7SM -SN OVC011 M03/M04 A2979 RMK AO2 UPB03E20SNB20 SLP093 P0000 T10281044 $
Loading
Personal Weather Stations






























Interactive Weather Map New forecast layout! Learn more

10-Day Weather Forecast

Advertisements
Track Severe Weather on mobile